Time;durP1;ratioP1;P1;durP2;ratioP2;P2;SDS_P1;SDS_P2;PMS_P1;PMS_P2;Temp;Humidity;BMP_temperature;BMP_pressure;BME280_temperature;BME280_humidity;BME280_pressure;Samples;Min_cycle;Max_cycle;Signal;HPM_P1;HPM_P2
2022/01/22 00:02:24;;;;;;;;;7.00;6.75;;;;;8.86;54.44;103283.03;4923416;28;46434;-75
2022/01/22 00:04:49;;;;;;;;;4.00;3.50;;;;;8.97;54.41;103311.59;4905726;28;45276;-75
2022/01/22 00:07:15;;;;;;;;;5.75;5.25;;;;;8.78;54.50;103276.69;4923783;28;45506;-76
2022/01/22 00:09:47;;;;;;;;;4.00;4.00;;;;;8.95;54.97;103300.94;4922958;28;45365;-76
2022/01/22 00:12:24;;;;;;;;;5.25;3.00;;;;;8.78;54.74;103271.38;4922964;28;46576;-76
2022/01/22 00:14:49;;;;;;;;;3.00;3.00;;;;;8.69;54.78;103255.25;4910754;28;45376;-75
2022/01/22 00:17:15;;;;;;;;;3.50;3.25;;;;;8.65;54.73;103243.69;4923308;28;45410;-76
2022/01/22 00:19:40;;;;;;;;;7.00;5.25;;;;;8.74;54.88;103258.91;4902774;28;45335;-76
2022/01/22 00:22:06;;;;;;;;;4.00;4.00;;;;;8.76;54.67;103253.59;4923037;28;45355;-76
2022/01/22 00:24:37;;;;;;;;;5.25;5.25;;;;;8.96;54.93;103291.19;4905903;28;45504;-75
2022/01/22 00:27:03;;;;;;;;;4.00;3.75;;;;;8.96;54.71;103291.19;4902466;28;45422;-76
2022/01/22 00:29:29;;;;;;;;;6.50;6.25;;;;;8.97;54.43;103298.28;4923042;28;45384;-76
2022/01/22 00:31:54;;;;;;;;;4.75;4.00;;;;;8.86;55.04;103275.06;4923024;28;46259;-76
2022/01/22 00:34:20;;;;;;;;;4.25;3.25;;;;;8.94;54.74;103279.59;4905881;28;45358;-75
2022/01/22 00:36:45;;;;;;;;;4.00;4.00;;;;;8.77;54.91;103258.03;4921409;28;45445;-75
2022/01/22 00:39:11;;;;;;;;;5.25;5.25;;;;;8.89;54.81;103263.56;4922877;28;45414;-76
2022/01/22 00:41:36;;;;;;;;;4.25;4.25;;;;;8.95;54.70;103271.63;4916150;28;46661;-75
2022/01/22 00:44:02;;;;;;;;;5.50;3.25;;;;;8.81;55.00;103242.13;4902128;29;45977;-75
2022/01/22 00:46:28;;;;;;;;;5.00;5.00;;;;;8.82;54.63;103245.66;4903799;28;45558;-75
2022/01/22 00:48:53;;;;;;;;;7.00;7.00;;;;;8.83;54.73;103244.81;4902492;29;45489;-75
2022/01/22 00:51:19;;;;;;;;;6.00;4.25;;;;;9.02;54.98;103281.53;4917827;28;47541;-75
2022/01/22 00:53:44;;;;;;;;;5.25;5.25;;;;;8.86;54.82;103259.06;4902585;28;45228;-75
2022/01/22 00:56:11;;;;;;;;;8.00;7.00;;;;;9.00;54.66;103272.59;4903303;28;45359;-75
2022/01/22 00:58:36;;;;;;;;;5.25;5.25;;;;;8.76;54.92;103233.19;4902288;29;46078;-75
2022/01/22 01:01:02;;;;;;;;;7.75;6.75;;;;;9.00;54.91;103274.34;4903213;29;45426;-75
2022/01/22 01:03:32;;;;;;;;;7.75;7.00;;;;;9.02;54.46;103278.84;4903520;28;45478;-75
2022/01/22 01:05:57;;;;;;;;;7.25;5.25;;;;;8.82;54.66;103240.34;4903388;28;45501;-75
2022/01/22 01:08:23;;;;;;;;;8.00;5.25;;;;;8.88;55.12;103248.44;4902219;29;45975;-76
2022/01/22 01:10:49;;;;;;;;;10.00;8.00;;;;;8.96;54.97;103252.13;4896308;29;48400;-76
2022/01/22 01:13:15;;;;;;;;;9.75;8.25;;;;;8.97;54.56;103261.91;4894408;29;45398;-75
2022/01/22 01:15:57;;;;;;;;;8.00;7.00;;;;;9.02;54.65;103264.63;4902041;29;45349;-76
2022/01/22 01:32:28;;;;;;;;;7.50;4.25;;;;;8.87;54.51;103223.59;4902114;29;45437;-76
2022/01/22 01:34:54;;;;;;;;;7.00;5.50;;;;;9.04;54.85;103253.13;4902749;29;45238;-75
2022/01/22 01:37:20;;;;;;;;;7.25;3.75;;;;;8.84;54.79;103226.19;4903441;28;45250;-75
2022/01/22 01:39:50;;;;;;;;;3.25;2.75;;;;;9.11;54.99;103270.09;4902977;28;45448;-74
2022/01/22 01:42:23;;;;;;;;;7.25;5.25;;;;;9.11;54.88;103266.53;4901327;29;48166;-73
2022/01/22 01:44:48;;;;;;;;;4.00;4.00;;;;;8.92;54.83;103234.31;4901142;29;45820;-73
2022/01/22 01:47:16;;;;;;;;;5.00;4.00;;;;;8.96;54.84;103246.78;4901889;29;45332;-73
2022/01/22 01:49:42;;;;;;;;;5.25;4.75;;;;;9.02;55.15;103253.97;4917195;28;45193;-73
2022/01/22 01:52:12;;;;;;;;;4.00;3.75;;;;;8.95;54.94;103247.66;4901492;29;48619;-74
2022/01/22 02:00:17;;;;;;;;;5.50;4.00;;;;;9.08;54.99;103262.03;4826114;29;45606;-73
2022/01/22 02:02:45;;;;;;;;;5.00;4.00;;;;;9.06;55.25;103262.03;4825903;29;46457;-74
2022/01/22 02:05:12;;;;;;;;;4.25;3.75;;;;;9.02;54.91;103248.63;4868026;29;45389;-74
2022/01/22 02:07:40;;;;;;;;;8.25;7.00;;;;;8.92;54.94;103233.41;4906076;28;45479;-74
2022/01/22 02:10:12;;;;;;;;;5.00;4.00;;;;;9.02;54.85;103259.28;4904245;29;45388;-74
2022/01/22 02:23:39;;;;;;;;;5.25;5.25;;;;;9.07;55.06;103238.94;4905567;29;45741;-74
2022/01/22 02:26:07;;;;;;;;;6.25;6.25;;;;;9.05;55.06;103251.34;4905696;29;45173;-74
2022/01/22 02:28:33;;;;;;;;;3.00;3.00;;;;;9.09;55.05;103250.53;4905912;28;45265;-74
2022/01/22 02:39:00;;;;;;;;;7.25;7.00;;;;;8.66;55.15;103176.22;4893461;29;45330;-73
2022/01/22 02:41:26;;;;;;;;;7.00;5.25;;;;;9.00;54.99;103235.28;4905086;28;45454;-73
2022/01/22 02:43:54;;;;;;;;;7.00;7.00;;;;;9.02;54.54;103235.31;4915417;28;46006;-73
2022/01/22 02:46:25;;;;;;;;;7.00;7.00;;;;;8.93;54.99;103213.88;4920574;28;45408;-74
2022/01/22 02:48:54;;;;;;;;;10.00;9.00;;;;;8.93;55.09;103220.09;4924476;28;45428;-74
2022/01/22 02:51:20;;;;;;;;;7.50;6.75;;;;;9.03;55.22;103229.13;4891109;29;45419;-73
2022/01/22 02:53:49;;;;;;;;;5.75;5.75;;;;;9.11;54.86;103238.13;4915399;28;46177;-74
2022/01/22 02:56:14;;;;;;;;;8.00;6.00;;;;;8.88;55.23;103201.38;4923987;28;45356;-74
2022/01/22 02:58:40;;;;;;;;;8.75;7.75;;;;;9.03;55.13;103214.00;4924441;28;45511;-74
2022/01/22 03:01:05;;;;;;;;;8.25;6.25;;;;;9.02;55.13;103214.91;4924326;28;45515;-74
2022/01/22 03:03:30;;;;;;;;;8.00;7.00;;;;;8.93;55.20;103203.22;4923956;28;45301;-74
2022/01/22 03:05:56;;;;;;;;;7.75;7.50;;;;;9.11;54.97;103243.44;4906959;28;46288;-74
2022/01/22 03:08:27;;;;;;;;;5.50;5.25;;;;;8.92;55.09;103206.75;4906558;28;45449;-74
2022/01/22 03:10:53;;;;;;;;;8.25;8.25;;;;;8.95;55.26;103207.69;4901531;29;46008;-74
2022/01/22 03:19:07;;;;;;;;;7.00;6.50;;;;;9.13;55.26;103225.69;4858785;29;45452;-74
2022/01/22 03:21:40;;;;;;;;;7.75;7.00;;;;;9.08;55.27;103222.09;4885098;28;46136;-74
2022/01/22 03:29:40;;;;;;;;;8.00;7.00;;;;;9.08;55.47;103225.63;4917164;28;45497;-74
2022/01/22 03:32:09;;;;;;;;;8.75;7.50;;;;;8.98;55.00;103210.41;4923698;28;45545;-74
2022/01/22 03:34:40;;;;;;;;;6.50;6.50;;;;;9.02;55.30;103222.00;4906673;28;46196;-74
2022/01/22 03:37:06;;;;;;;;;8.75;7.75;;;;;8.99;55.18;103203.31;4911551;28;45237;-74
2022/01/22 03:39:32;;;;;;;;;10.25;8.25;;;;;9.17;55.01;103237.28;4906378;28;45364;-74
2022/01/22 03:41:57;;;;;;;;;5.50;5.50;;;;;8.95;54.99;103205.03;4899160;29;45545;-74
2022/01/22 03:44:23;;;;;;;;;11.50;9.00;;;;;9.00;55.34;103219.28;4917094;28;45514;-74
2022/01/22 03:46:48;;;;;;;;;12.25;8.75;;;;;8.96;55.30;103208.59;4923596;28;45436;-74
2022/01/22 03:49:16;;;;;;;;;10.25;7.50;;;;;9.15;55.51;103245.25;4906539;28;45891;-74
2022/01/22 03:51:41;;;;;;;;;8.75;8.75;;;;;9.09;55.45;103235.44;4898853;29;45339;-74
2022/01/22 03:54:07;;;;;;;;;11.00;10.00;;;;;9.12;55.31;103239.91;4917873;28;46298;-74
2022/01/22 03:56:32;;;;;;;;;8.50;8.50;;;;;9.22;55.35;103246.25;4923296;28;45243;-74
2022/01/22 03:58:58;;;;;;;;;9.75;9.00;;;;;8.91;54.98;103189.88;4904353;28;45169;-74
2022/01/22 04:08:55;;;;;;;;;8.50;8.50;;;;;8.92;55.61;103223.66;4923399;28;45351;-74
2022/01/22 04:11:20;;;;;;;;;10.00;10.00;;;;;9.04;55.59;103229.16;4906144;28;45527;-74
2022/01/22 04:13:49;;;;;;;;;10.00;8.50;;;;;8.96;55.18;103217.47;4922982;28;45907;-74
2022/01/22 04:16:15;;;;;;;;;10.50;9.75;;;;;9.09;55.42;103230.09;4903083;29;45634;-74
2022/01/22 04:26:58;;;;;;;;;10.75;8.75;;;;;9.08;55.79;103214.09;4922572;28;45646;-74
2022/01/22 04:29:26;;;;;;;;;10.00;9.50;;;;;9.11;55.65;103223.91;4909659;28;45354;-74
2022/01/22 04:31:52;;;;;;;;;11.50;11.50;;;;;8.91;55.22;103197.88;4920106;28;45554;-74
2022/01/22 04:34:18;;;;;;;;;11.00;11.00;;;;;9.15;55.67;103236.38;4922949;28;45371;-74
2022/01/22 04:36:44;;;;;;;;;10.00;10.00;;;;;9.11;55.55;103223.91;4905641;28;45205;-74
2022/01/22 04:39:10;;;;;;;;;13.00;11.50;;;;;8.95;55.45;103199.69;4923113;28;45681;-74
2022/01/22 04:41:37;;;;;;;;;10.50;10.50;;;;;9.13;55.68;103224.81;4921518;28;45501;-74
2022/01/22 04:44:04;;;;;;;;;11.75;11.00;;;;;9.12;55.74;103231.00;4891848;28;46786;-74
2022/01/22 04:52:30;;;;;;;;;14.25;12.75;;;;;8.92;55.46;103194.34;4922710;28;45470;-74
2022/01/22 04:55:02;;;;;;;;;16.50;14.75;;;;;9.07;55.46;103229.19;4922483;28;45673;-74
2022/01/22 04:57:37;;;;;;;;;18.75;16.00;;;;;9.05;55.51;103228.28;4892710;28;45822;-74
2022/01/22 05:00:06;;;;;;;;;17.00;16.00;;;;;8.96;55.64;103206.81;4922982;28;45439;-74
2022/01/22 05:02:31;;;;;;;;;15.00;15.00;;;;;9.05;55.25;103219.38;4921997;28;45522;-74
2022/01/22 05:04:56;;;;;;;;;22.50;19.00;;;;;8.92;55.65;103193.44;4905249;28;47492;-74
2022/01/22 05:07:22;;;;;;;;;28.00;20.25;;;;;8.87;55.56;103202.28;4905202;28;45489;-74
2022/01/22 05:09:47;;;;;;;;;16.50;16.50;;;;;8.95;55.62;103217.47;4905268;28;45516;-74
2022/01/22 05:12:13;;;;;;;;;21.50;20.50;;;;;8.70;54.91;103177.16;4921767;28;45477;-74
2022/01/22 05:14:38;;;;;;;;;23.50;19.50;;;;;8.87;55.20;103214.66;4901982;29;48181;-74
2022/01/22 05:17:06;;;;;;;;;22.00;20.75;;;;;8.88;55.03;103225.34;4919915;28;45264;-74
2022/01/22 05:24:58;;;;;;;;;23.25;19.75;;;;;8.76;55.26;103230.50;4921876;28;45451;-74
2022/01/22 05:27:38;;;;;;;;;20.75;20.00;;;;;8.57;55.39;103201.81;4909592;28;45772;-74
2022/01/22 05:30:24;;;;;;;;;20.00;18.75;;;;;8.71;55.74;103238.44;4905102;28;45486;-74
2022/01/22 05:32:57;;;;;;;;;18.25;18.00;;;;;8.73;55.49;103253.53;4914342;28;45516;-74
2022/01/22 05:38:07;;;;;;;;;23.75;21.00;;;;;8.66;56.11;103236.56;4922112;28;45858;-74
2022/01/22 05:40:33;;;;;;;;;25.25;23.00;;;;;8.51;55.41;103214.16;4922418;28;45440;-74
2022/01/22 05:42:59;;;;;;;;;25.50;19.75;;;;;8.49;55.72;103209.69;4921156;28;45492;-74
2022/01/22 05:45:25;;;;;;;;;25.25;23.25;;;;;8.62;55.89;103230.31;4925255;28;45363;-74
2022/01/22 05:47:50;;;;;;;;;20.25;19.00;;;;;8.49;55.90;103205.25;4908273;28;45473;-74
2022/01/22 05:50:32;;;;;;;;;20.25;19.00;;;;;8.64;55.70;103246.31;4904849;29;45382;-74
2022/01/22 05:53:14;;;;;;;;;24.25;22.50;;;;;8.66;55.77;103257.88;4923318;28;46007;-74
2022/01/22 06:01:10;;;;;;;;;24.75;20.75;;;;;8.61;55.97;103270.22;4924572;28;45407;-76
2022/01/22 06:03:35;;;;;;;;;22.00;20.75;;;;;8.40;55.80;103233.44;4925361;28;45149;-76
2022/01/22 06:06:01;;;;;;;;;23.75;20.25;;;;;8.38;56.14;103237.84;4924904;28;46417;-76
2022/01/22 06:08:33;;;;;;;;;25.50;21.50;;;;;8.30;55.99;103235.97;4925343;28;45523;-76
2022/01/22 06:11:07;;;;;;;;;23.75;22.75;;;;;8.17;56.08;103220.66;4924587;28;45221;-76
2022/01/22 06:13:46;;;;;;;;;25.00;21.00;;;;;8.34;56.16;103244.91;4924998;28;45238;-76
2022/01/22 06:16:14;;;;;;;;;27.50;23.00;;;;;8.51;55.98;103275.38;4925217;28;46094;-76
2022/01/22 06:18:39;;;;;;;;;22.00;20.00;;;;;8.45;56.45;103259.31;4924632;28;45366;-76
2022/01/22 06:21:05;;;;;;;;;22.00;20.25;;;;;8.55;56.08;103262.13;4924727;28;45293;-76
2022/01/22 06:23:31;;;;;;;;;19.50;18.50;;;;;8.58;56.21;103268.38;4924669;28;45460;-76
2022/01/22 06:26:00;;;;;;;;;29.50;26.00;;;;;8.45;55.94;103250.41;4924676;28;45352;-76
2022/01/22 06:28:29;;;;;;;;;21.25;20.00;;;;;8.52;56.16;103257.66;4924821;28;45834;-76
2022/01/22 06:30:55;;;;;;;;;21.50;19.50;;;;;8.45;56.34;103230.03;4891714;28;45326;-76
2022/01/22 06:33:20;;;;;;;;;21.75;21.75;;;;;8.44;56.21;103222.03;4924863;28;45551;-76
2022/01/22 06:35:46;;;;;;;;;24.00;20.25;;;;;8.37;56.12;103213.03;4924895;28;46137;-76
2022/01/22 06:38:11;;;;;;;;;23.25;19.75;;;;;8.68;56.16;103251.69;4924872;28;45366;-76
2022/01/22 06:43:04;;;;;;;;;21.50;19.75;;;;;8.61;56.09;103232.94;4920925;28;45434;-76
2022/01/22 06:45:30;;;;;;;;;21.50;19.25;;;;;8.58;56.31;103230.22;4907166;28;47014;-76
2022/01/22 06:47:55;;;;;;;;;31.25;26.25;;;;;8.73;55.91;103264.19;4924322;28;45301;-76
2022/01/22 06:50:23;;;;;;;;;24.50;18.25;;;;;8.49;55.58;103220.34;4906766;28;45426;-76
2022/01/22 06:52:55;;;;;;;;;23.50;23.50;;;;;8.70;55.99;103252.63;4904330;28;45462;-76
2022/01/22 06:55:36;;;;;;;;;21.25;20.25;;;;;8.73;56.25;103258.88;4924157;28;45545;-76
2022/01/22 06:58:01;;;;;;;;;24.75;22.00;;;;;8.58;56.35;103235.56;4911769;28;45717;-76
2022/01/22 07:00:27;;;;;;;;;23.50;21.50;;;;;8.58;56.02;103236.44;4924325;28;45326;-76
2022/01/22 07:02:52;;;;;;;;;29.25;25.00;;;;;8.81;56.38;103281.19;4924537;28;45484;-76
2022/01/22 07:05:17;;;;;;;;;28.00;22.50;;;;;8.57;56.01;103245.31;4903926;29;47321;-76
2022/01/22 07:07:43;;;;;;;;;22.50;21.50;;;;;8.56;56.24;103247.94;4911760;28;45292;-76
2022/01/22 07:10:09;;;;;;;;;25.75;24.00;;;;;8.59;56.43;103256.88;4906327;28;45485;-76
2022/01/22 07:12:34;;;;;;;;;26.75;22.75;;;;;8.68;55.96;103267.66;4924324;28;45321;-76
2022/01/22 07:14:59;;;;;;;;;21.00;21.00;;;;;8.55;56.25;103247.03;4924136;28;45158;-76
2022/01/22 07:17:25;;;;;;;;;24.50;21.50;;;;;8.55;56.37;103241.72;4904531;28;45185;-76
2022/01/22 07:19:52;;;;;;;;;26.25;22.50;;;;;8.59;56.51;103243.56;4923577;28;45762;-76
2022/01/22 07:22:39;;;;;;;;;21.50;21.50;;;;;8.70;56.62;103265.94;4923711;28;45333;-76
2022/01/22 07:25:06;;;;;;;;;24.50;22.75;;;;;8.67;56.37;103254.31;4906366;28;48275;-76
2022/01/22 07:27:31;;;;;;;;;24.75;22.25;;;;;8.66;56.03;103247.22;4923833;28;45542;-76
2022/01/22 07:29:56;;;;;;;;;26.00;22.25;;;;;8.67;55.83;103247.25;4900639;28;45367;-76
2022/01/22 07:32:34;;;;;;;;;23.50;19.25;;;;;8.61;56.01;103241.81;4923651;28;45317;-76
2022/01/22 07:34:59;;;;;;;;;26.00;23.00;;;;;8.64;56.30;103255.19;4906597;28;48054;-75
2022/01/22 07:37:24;;;;;;;;;27.50;23.75;;;;;8.53;55.95;103238.13;4924119;28;45279;-76
2022/01/22 07:39:50;;;;;;;;;24.25;21.50;;;;;8.83;56.12;103287.44;4923339;28;45174;-75
2022/01/22 07:42:16;;;;;;;;;21.75;21.50;;;;;8.55;56.41;103244.38;4923557;28;45450;-76
2022/01/22 07:44:42;;;;;;;;;26.25;22.75;;;;;8.85;56.10;103286.59;4923128;28;45649;-76
2022/01/22 07:47:07;;;;;;;;;26.25;24.00;;;;;8.69;56.03;103256.16;4923805;28;45535;-76
2022/01/22 07:49:32;;;;;;;;;25.00;21.75;;;;;8.65;56.20;103264.97;4922090;28;46092;-76
2022/01/22 07:51:58;;;;;;;;;24.50;23.00;;;;;8.76;56.00;103296.22;4923065;28;45693;-76
2022/01/22 07:54:24;;;;;;;;;28.75;22.25;;;;;8.66;56.27;103274.75;4923481;28;45458;-76
2022/01/22 07:56:49;;;;;;;;;25.50;21.50;;;;;8.69;56.09;103269.47;4923004;28;45674;-76
2022/01/22 07:59:15;;;;;;;;;26.25;20.50;;;;;8.81;56.23;103300.72;4905283;28;45461;-76
2022/01/22 08:01:41;;;;;;;;;27.00;24.00;;;;;8.80;56.39;103287.38;4922965;28;45347;-75
2022/01/22 08:04:07;;;;;;;;;31.25;27.25;;;;;8.90;56.60;103311.53;4922753;28;45436;-68
2022/01/22 08:06:33;;;;;;;;;27.00;22.25;;;;;8.81;56.48;103284.75;4921695;28;45467;-68
2022/01/22 08:08:58;;;;;;;;;27.25;22.75;;;;;8.70;56.42;103281.91;4894309;29;45357;-68
2022/01/22 08:11:24;;;;;;;;;24.00;21.25;;;;;8.80;56.28;103301.59;4922103;28;45300;-69
2022/01/22 08:13:49;;;;;;;;;26.75;24.50;;;;;8.61;56.08;103281.75;4917645;28;46173;-68
2022/01/22 08:16:15;;;;;;;;;27.75;23.50;;;;;8.60;56.24;103293.25;4923085;28;45359;-68
2022/01/22 08:18:40;;;;;;;;;29.50;27.00;;;;;8.70;56.49;103304.97;4922433;28;45385;-68
2022/01/22 08:21:06;;;;;;;;;29.50;25.75;;;;;8.45;56.36;103269.06;4905808;28;45262;-68
2022/01/22 08:23:32;;;;;;;;;26.25;25.50;;;;;8.44;56.77;103268.16;4922850;28;46663;-68
2022/01/22 08:25:58;;;;;;;;;28.75;25.75;;;;;8.60;56.04;103290.59;4922919;28;45416;-68
2022/01/22 08:31:39;;;;;;;;;28.75;24.25;;;;;8.78;56.49;103316.66;4921692;28;45471;-68
2022/01/22 08:36:42;;;;;;;;;22.75;20.50;;;;;8.70;56.45;103295.25;4922823;28;45473;-69
2022/01/22 08:39:08;;;;;;;;;22.25;20.75;;;;;8.88;56.53;103331.00;4921625;28;45604;-69
2022/01/22 08:41:36;;;;;;;;;27.75;27.75;;;;;8.73;56.30;103306.81;4906023;28;45409;-69
2022/01/22 08:44:02;;;;;;;;;32.75;27.00;;;;;8.84;56.84;103323.88;4922516;28;46196;-69
2022/01/22 08:46:28;;;;;;;;;31.25;26.50;;;;;8.92;56.67;103339.94;4920464;28;45373;-71
2022/01/22 08:48:54;;;;;;;;;29.00;22.50;;;;;8.88;56.68;103336.34;4919260;28;45405;-72
2022/01/22 08:51:20;;;;;;;;;31.50;26.75;;;;;8.83;56.58;103327.38;4920871;28;45363;-72
2022/01/22 08:53:47;;;;;;;;;29.00;23.50;;;;;8.91;56.37;103344.38;4921005;28;45425;-71
2022/01/22 08:56:13;;;;;;;;;26.25;24.25;;;;;8.88;56.23;103329.22;4918065;28;45517;-71
2022/01/22 08:58:38;;;;;;;;;31.25;26.75;;;;;8.88;56.43;103339.88;4920920;28;45499;-71
2022/01/22 09:01:04;;;;;;;;;31.75;29.50;;;;;8.98;56.50;103348.03;4919981;28;45213;-72
2022/01/22 09:03:30;;;;;;;;;27.00;26.75;;;;;8.96;56.90;103350.69;4901932;28;48522;-72
2022/01/22 09:05:57;;;;;;;;;24.50;22.25;;;;;8.95;56.37;103356.88;4915392;28;45218;-74
2022/01/22 09:08:24;;;;;;;;;22.75;21.75;;;;;8.95;56.53;103356.88;4921392;28;45641;-70
2022/01/22 09:10:50;;;;;;;;;32.50;25.00;;;;;8.96;56.59;103365.78;4904677;28;45534;-70
2022/01/22 09:13:16;;;;;;;;;23.00;21.25;;;;;8.97;56.14;103359.56;4922168;28;45387;-71
2022/01/22 09:15:42;;;;;;;;;31.50;27.00;;;;;8.97;56.22;103363.16;4921208;28;45403;-73
2022/01/22 09:18:08;;;;;;;;;29.25;27.25;;;;;8.96;56.53;103365.78;4904902;28;45499;-72
2022/01/22 09:23:02;;;;;;;;;33.25;27.25;;;;;8.95;56.32;103358.66;4916982;28;46268;-73
2022/01/22 09:25:27;;;;;;;;;32.25;27.75;;;;;8.93;56.49;103357.72;4902704;28;46117;-73
2022/01/22 09:27:53;;;;;;;;;31.50;24.75;;;;;8.84;56.30;103356.72;4921043;28;45550;-73
2022/01/22 09:30:18;;;;;;;;;26.00;23.50;;;;;8.86;56.42;103364.72;4919796;28;45423;-70
2022/01/22 09:32:44;;;;;;;;;32.00;27.00;;;;;8.83;56.69;103362.91;4919662;28;46346;-70
2022/01/22 09:35:09;;;;;;;;;19.25;15.00;;;;;8.90;56.56;103371.88;4907273;28;45558;-70
2022/01/22 09:37:34;;;;;;;;;26.75;26.00;;;;;8.88;56.45;103374.53;4901869;28;45430;-70
2022/01/22 09:40:00;;;;;;;;;33.25;28.50;;;;;8.90;56.42;103382.53;4918126;28;45542;-70
2022/01/22 09:42:25;;;;;;;;;27.75;22.75;;;;;8.94;56.73;103379.06;4911510;28;46875;-70
2022/01/22 09:44:51;;;;;;;;;25.25;24.00;;;;;8.93;56.64;103371.94;4918426;28;45522;-67
2022/01/22 09:47:21;;;;;;;;;21.00;21.00;;;;;9.02;56.26;103380.09;4920242;28;45416;-67
2022/01/22 09:49:46;;;;;;;;;26.75;21.75;;;;;9.01;56.10;103377.41;4903377;28;45887;-67
2022/01/22 09:52:12;;;;;;;;;23.00;19.50;;;;;9.00;56.21;103376.50;4919643;28;45454;-72
2022/01/22 09:54:38;;;;;;;;;22.50;21.00;;;;;8.95;56.05;103385.28;4918924;28;45442;-73
2022/01/22 09:57:04;;;;;;;;;28.75;22.75;;;;;8.95;56.31;103386.19;4902402;28;45509;-73
2022/01/22 09:59:30;;;;;;;;;29.50;24.00;;;;;8.90;56.09;103388.78;4919088;28;45514;-73
2022/01/22 10:02:11;;;;;;;;;28.00;25.25;;;;;8.82;56.32;103377.09;4901291;28;47371;-73
2022/01/22 10:04:38;;;;;;;;;27.75;24.25;;;;;8.71;56.37;103363.59;4902927;28;45929;-73
2022/01/22 10:07:04;;;;;;;;;30.75;24.25;;;;;8.78;56.33;103377.91;4890853;28;45403;-74
2022/01/22 10:09:46;;;;;;;;;22.75;22.00;;;;;8.78;56.29;103377.91;4920378;28;45420;-74
2022/01/22 10:12:16;;;;;;;;;29.50;23.50;;;;;8.84;56.84;103382.47;4906412;28;46052;-74
2022/01/22 10:15:11;;;;;;;;;27.25;25.50;;;;;8.90;56.58;103391.44;4899754;28;45442;-74
2022/01/22 10:17:45;;;;;;;;;27.75;25.50;;;;;8.94;56.26;103396.81;4903068;28;45420;-76
2022/01/22 10:20:23;;;;;;;;;26.25;23.00;;;;;8.95;56.53;103395.94;4920250;28;45437;-76
2022/01/22 10:22:50;;;;;;;;;29.00;25.50;;;;;8.90;56.03;103388.78;4918959;28;45457;-77
2022/01/22 10:25:25;;;;;;;;;20.50;18.00;;;;;8.86;55.96;103391.38;4919837;28;45364;-74
2022/01/22 10:27:55;;;;;;;;;33.50;28.50;;;;;8.84;56.34;103394.00;4906682;28;45746;-71
2022/01/22 10:30:21;;;;;;;;;31.00;28.25;;;;;8.86;56.54;103397.56;4914525;28;45422;-71
2022/01/22 10:32:58;;;;;;;;;26.25;25.25;;;;;8.90;56.41;103399.44;4924207;28;45424;-71
2022/01/22 10:35:27;;;;;;;;;27.50;22.75;;;;;8.96;56.54;103403.97;4924450;28;45665;-71
2022/01/22 10:37:57;;;;;;;;;24.25;20.75;;;;;8.94;56.01;103400.38;4907873;28;45484;-71
2022/01/22 10:40:27;;;;;;;;;21.75;20.75;;;;;8.92;55.75;103407.47;4924151;28;45328;-70
2022/01/22 10:43:32;;;;;;;;;23.00;21.25;;;;;8.82;56.05;103398.41;4923263;28;46055;-70
2022/01/22 10:46:31;;;;;;;;;22.25;20.00;;;;;8.86;56.00;103405.56;4902793;28;45490;-70
2022/01/22 10:49:00;;;;;;;;;21.50;20.50;;;;;8.88;56.32;103397.59;4914922;28;45457;-70
2022/01/22 10:51:28;;;;;;;;;25.00;20.75;;;;;8.72;56.60;103372.50;4924378;28;45495;-70
2022/01/22 10:53:57;;;;;;;;;22.00;19.75;;;;;8.91;56.32;103389.66;4924358;28;45458;-72
2022/01/22 10:56:24;;;;;;;;;24.50;22.25;;;;;8.93;56.29;103395.91;4904144;28;45827;-72
2022/01/22 10:59:07;;;;;;;;;23.00;20.50;;;;;8.94;56.27;103387.06;4914833;28;45493;-73
2022/01/22 11:01:48;;;;;;;;;26.00;25.00;;;;;9.00;56.29;103395.13;4921858;28;45387;-73
2022/01/22 11:04:27;;;;;;;;;23.50;21.00;;;;;8.97;56.33;103392.44;4892493;28;48082;-73
2022/01/22 11:06:58;;;;;;;;;23.00;22.75;;;;;8.87;56.10;103369.16;4923316;28;46670;-70
2022/01/22 11:09:26;;;;;;;;;21.75;18.50;;;;;8.95;56.34;103386.19;4924123;28;45415;-70
2022/01/22 11:11:52;;;;;;;;;23.50;20.75;;;;;8.94;56.01;103372.81;4921667;28;45376;-72
2022/01/22 11:14:19;;;;;;;;;27.75;25.50;;;;;8.95;56.21;103375.50;4917026;28;45644;-72
2022/01/22 11:16:46;;;;;;;;;28.25;23.00;;;;;9.03;56.08;103379.22;4923042;28;45749;-69
2022/01/22 11:19:15;;;;;;;;;29.25;26.50;;;;;9.03;55.96;103378.31;4922542;28;45505;-70
2022/01/22 11:21:44;;;;;;;;;29.00;25.25;;;;;9.03;55.97;103378.31;4922984;28;45366;-71
2022/01/22 11:24:18;;;;;;;;;23.75;23.25;;;;;9.11;56.28;103379.34;4919293;28;47416;-69
2022/01/22 11:26:52;;;;;;;;;26.00;24.50;;;;;9.09;55.97;103376.66;4922311;28;45466;-69
2022/01/22 11:29:22;;;;;;;;;31.00;27.25;;;;;9.02;56.43;103371.19;4905438;28;45490;-69
2022/01/22 11:31:50;;;;;;;;;27.25;23.50;;;;;9.06;56.28;103365.94;4919152;28;45482;-69
2022/01/22 11:34:19;;;;;;;;;28.00;28.00;;;;;9.11;55.91;103368.69;4896953;29;48129;-71
2022/01/22 11:37:20;;;;;;;;;27.50;24.00;;;;;9.14;55.92;103374.06;4915602;28;45458;-70
2022/01/22 11:39:46;;;;;;;;;26.25;21.75;;;;;9.09;56.17;103355.34;4900545;28;45540;-70
2022/01/22 11:42:11;;;;;;;;;28.75;27.50;;;;;9.14;56.27;103368.75;4902523;28;45592;-74
2022/01/22 11:44:49;;;;;;;;;28.50;26.25;;;;;9.17;56.01;103359.88;4921973;28;45837;-73
2022/01/22 11:47:20;;;;;;;;;30.75;26.00;;;;;9.21;55.82;103372.41;4905487;28;45341;-72
2022/01/22 11:50:06;;;;;;;;;31.25;25.50;;;;;9.20;55.70;103358.16;4923756;28;45333;-73
2022/01/22 11:52:34;;;;;;;;;27.00;26.00;;;;;9.18;55.80;103359.91;4922692;28;45408;-72
2022/01/22 11:55:07;;;;;;;;;33.00;29.00;;;;;9.21;55.71;103362.63;4902956;28;47689;-70
2022/01/22 11:57:33;;;;;;;;;25.75;25.50;;;;;9.20;55.78;103350.16;4922583;28;45665;-70
2022/01/22 12:00:21;;;;;;;;;28.00;23.00;;;;;9.22;55.52;103353.75;4922631;28;45261;-78
2022/01/22 12:03:07;;;;;;;;;25.25;24.25;;;;;9.25;55.75;103363.56;4922308;28;45504;-78
2022/01/22 12:05:54;;;;;;;;;24.00;24.00;;;;;9.22;56.01;103336.84;4922049;28;46452;-78
2022/01/22 12:08:24;;;;;;;;;32.25;27.00;;;;;9.25;55.63;103343.16;4909003;28;45717;-78
2022/01/22 12:16:44;;;;;;;;;31.00;28.25;;;;;9.33;55.79;103332.59;4920798;28;45853;-77
2022/01/22 12:22:45;;;;;;;;;29.00;26.50;;;;;9.29;55.70;103333.44;4918364;28;45466;-75
2022/01/22 12:25:14;;;;;;;;;29.50;26.25;;;;;9.32;55.66;103333.47;4919213;28;45420;-78
2022/01/22 12:27:48;;;;;;;;;28.75;24.50;;;;;9.37;55.59;103328.19;4919864;28;45430;-77
2022/01/22 12:30:15;;;;;;;;;31.50;28.25;;;;;9.33;55.74;103316.59;4919540;28;45449;-77
2022/01/22 12:32:45;;;;;;;;;22.00;22.00;;;;;9.34;55.13;103325.47;4921243;28;45379;-79
2022/01/22 12:35:15;;;;;;;;;25.50;24.25;;;;;9.30;55.65;103313.00;4920021;28;45571;-78
2022/01/22 12:37:46;;;;;;;;;30.75;28.50;;;;;9.36;55.52;103321.09;4919392;28;45669;-77
2022/01/22 12:40:13;;;;;;;;;27.25;24.00;;;;;9.34;55.71;103318.38;4918208;28;45347;-77
2022/01/22 12:42:56;;;;;;;;;29.75;25.00;;;;;9.30;55.75;103305.88;4921802;28;45343;-76
2022/01/22 12:45:25;;;;;;;;;32.25;28.50;;;;;9.38;55.44;103304.22;4921975;28;45379;-72
2022/01/22 12:47:50;;;;;;;;;27.50;25.75;;;;;9.36;55.40;103299.75;4921565;28;45944;-76
2022/01/22 12:50:23;;;;;;;;;29.50;24.50;;;;;9.39;55.22;103305.13;4922014;28;45321;-77
2022/01/22 12:52:51;;;;;;;;;37.25;30.50;;;;;9.30;55.83;103286.34;4919048;28;45423;-75
2022/01/22 12:55:25;;;;;;;;;27.75;27.25;;;;;9.40;55.21;103290.91;4904619;28;45376;-75
2022/01/22 12:57:50;;;;;;;;;27.50;26.25;;;;;9.32;55.68;103277.50;4916797;28;46163;-73
2022/01/22 13:00:18;;;;;;;;;36.25;31.50;;;;;9.36;55.07;103281.97;4904390;28;45933;-75
2022/01/22 13:02:50;;;;;;;;;28.75;24.25;;;;;9.36;54.89;103281.97;4921825;28;45316;-76
2022/01/22 13:05:18;;;;;;;;;28.75;25.75;;;;;9.44;55.29;103290.09;4921163;28;45528;-76
2022/01/22 13:07:53;;;;;;;;;33.75;27.75;;;;;9.42;55.42;103291.81;4921864;28;45396;-77
2022/01/22 13:10:22;;;;;;;;;28.75;24.00;;;;;9.44;55.16;103284.75;4920077;28;45518;-76
2022/01/22 13:12:48;;;;;;;;;31.50;27.75;;;;;9.46;55.06;103275.88;4921524;28;45467;-76
2022/01/22 13:15:17;;;;;;;;;28.00;24.25;;;;;9.43;55.35;103267.84;4921678;28;45351;-76